Time;durP1;ratioP1;P1;durP2;ratioP2;P2;SDS_P1;SDS_P2;PMS_P1;PMS_P2;Temp;Humidity;BMP_temperature;BMP_pressure;BME280_temperature;BME280_humidity;BME280_pressure;Samples;Min_cycle;Max_cycle;Signal;HPM_P1;HPM_P2
2023/12/16 00:07:21;;;;;;;;;;;1.40;99.90;;;;;;20902869;28;20381;-77
2023/12/16 00:17:23;;;;;;;;;;;0.90;99.90;;;;;;20902558;28;19908;-76
2023/12/16 00:27:24;;;;;;;;;;;1.20;99.90;;;;;;20906376;28;19920;-75
2023/12/16 00:37:25;;;;;;;;;;;1.40;99.90;;;;;;20911805;28;19912;-75
2023/12/16 00:47:26;;;;;;;;;;;1.20;99.90;;;;;;20916873;28;20408;-77
2023/12/16 00:57:26;;;;;;;;;;;1.00;99.90;;;;;;20917381;28;19913;-76
2023/12/16 01:07:28;;;;;;;;;;;0.70;99.90;;;;;;20914826;28;19913;-75
2023/12/16 01:17:29;;;;;;;;;;;0.90;99.90;;;;;;20914886;28;20352;-77
2023/12/16 01:27:30;;;;;;;;;;;0.70;99.90;;;;;;20913880;28;19912;-76
2023/12/16 01:37:31;;;;;;;;;;;0.60;99.90;;;;;;20904728;28;19966;-77
2023/12/16 01:47:33;;;;;;;;;;;0.50;99.90;;;;;;20912988;28;20016;-76
2023/12/16 01:57:35;;;;;;;;;;;0.60;99.90;;;;;;20906718;28;19951;-76
2023/12/16 02:07:39;;;;;;;;;;;0.60;99.90;;;;;;20890229;28;19912;-76
2023/12/16 02:17:40;;;;;;;;;;;0.60;99.90;;;;;;20910281;28;19908;-76
2023/12/16 02:27:41;;;;;;;;;;;0.70;99.90;;;;;;20909295;28;19913;-75
2023/12/16 02:37:42;;;;;;;;;;;0.60;99.90;;;;;;20891190;28;19919;-76
2023/12/16 02:47:43;;;;;;;;;;;0.60;99.90;;;;;;20905219;28;19917;-76
2023/12/16 02:57:44;;;;;;;;;;;0.60;99.90;;;;;;20901611;28;19927;-76
2023/12/16 03:07:44;;;;;;;;;;;0.70;99.90;;;;;;20903506;28;20472;-76
2023/12/16 03:17:45;;;;;;;;;;;0.60;99.90;;;;;;20905823;28;19909;-75
2023/12/16 03:27:46;;;;;;;;;;;0.70;99.90;;;;;;20904582;28;20013;-76
2023/12/16 03:37:47;;;;;;;;;;;0.50;99.90;;;;;;20895829;28;19956;-76
2023/12/16 03:47:48;;;;;;;;;;;0.40;99.90;;;;;;20883747;28;19913;-76
2023/12/16 03:57:48;;;;;;;;;;;0.40;99.90;;;;;;20905593;28;19909;-77
2023/12/16 04:07:49;;;;;;;;;;;0.20;99.90;;;;;;20917999;28;19912;-75
2023/12/16 04:17:50;;;;;;;;;;;0.20;99.90;;;;;;20912716;28;19916;-77
2023/12/16 04:27:50;;;;;;;;;;;0.20;99.90;;;;;;20919547;28;20269;-76
2023/12/16 04:37:51;;;;;;;;;;;0.20;99.90;;;;;;20915073;28;19966;-77
2023/12/16 04:47:52;;;;;;;;;;;0.40;99.90;;;;;;20917562;28;20041;-77
2023/12/16 04:57:52;;;;;;;;;;;0.50;99.90;;;;;;20911363;28;20331;-73
2023/12/16 05:07:53;;;;;;;;;;;0.20;99.90;;;;;;20909437;28;19952;-74
2023/12/16 05:17:54;;;;;;;;;;;0.00;99.90;;;;;;20885257;28;20284;-76
2023/12/16 05:27:58;;;;;;;;;;;0.00;99.90;;;;;;20909947;28;19955;-76
2023/12/16 05:37:59;;;;;;;;;;;0.10;99.90;;;;;;20901925;28;19966;-75
2023/12/16 05:48:00;;;;;;;;;;;0.20;99.90;;;;;;20906943;28;19913;-76
2023/12/16 05:58:00;;;;;;;;;;;0.20;99.90;;;;;;20905251;28;19909;-77
2023/12/16 06:08:02;;;;;;;;;;;0.10;99.90;;;;;;20908165;28;19927;-76
2023/12/16 06:18:03;;;;;;;;;;;0.20;99.90;;;;;;20902979;28;19980;-75
2023/12/16 06:28:04;;;;;;;;;;;0.00;99.90;;;;;;20908642;28;19919;-76
2023/12/16 06:38:05;;;;;;;;;;;-0.10;99.90;;;;;;20908007;28;20345;-74
2023/12/16 06:48:05;;;;;;;;;;;-0.30;99.90;;;;;;20907855;28;19943;-76
2023/12/16 06:58:06;;;;;;;;;;;-0.20;99.90;;;;;;20907805;28;19966;-76
2023/12/16 07:08:07;;;;;;;;;;;-0.20;99.90;;;;;;20902345;28;19917;-76
2023/12/16 07:18:07;;;;;;;;;;;0.00;99.90;;;;;;20902455;28;20373;-75
2023/12/16 07:28:08;;;;;;;;;;;0.00;99.90;;;;;;20901416;28;19913;-76
2023/12/16 07:38:09;;;;;;;;;;;0.00;99.90;;;;;;20900828;28;20319;-76
2023/12/16 07:48:10;;;;;;;;;;;0.00;99.90;;;;;;20899991;28;19919;-76
2023/12/16 07:58:10;;;;;;;;;;;-0.10;99.90;;;;;;20901474;28;19908;-76
2023/12/16 08:08:11;;;;;;;;;;;0.10;99.90;;;;;;20901717;28;19948;-76
2023/12/16 08:18:12;;;;;;;;;;;0.10;99.90;;;;;;20899616;28;20258;-76
2023/12/16 08:28:13;;;;;;;;;;;0.20;99.90;;;;;;20874860;28;19919;-76
2023/12/16 08:38:14;;;;;;;;;;;0.30;99.90;;;;;;20882722;28;19912;-75
2023/12/16 08:48:14;;;;;;;;;;;0.40;99.90;;;;;;20900398;28;20535;-75
2023/12/16 08:58:15;;;;;;;;;;;0.40;99.90;;;;;;20906648;28;19956;-75
2023/12/16 09:08:16;;;;;;;;;;;0.50;99.90;;;;;;20910176;28;20011;-77
2023/12/16 09:18:17;;;;;;;;;;;0.70;99.90;;;;;;20909756;28;19967;-76
2023/12/16 09:28:17;;;;;;;;;;;0.70;99.90;;;;;;20891779;28;19999;-76
2023/12/16 09:38:18;;;;;;;;;;;0.60;99.90;;;;;;20920373;28;19913;-76
2023/12/16 09:48:19;;;;;;;;;;;0.90;99.90;;;;;;20913398;28;20011;-75
2023/12/16 09:58:20;;;;;;;;;;;0.90;99.90;;;;;;20912610;28;19908;-75
2023/12/16 10:08:20;;;;;;;;;;;0.90;99.90;;;;;;20910550;28;20011;-74
2023/12/16 10:18:21;;;;;;;;;;;1.00;99.90;;;;;;20889412;28;19909;-75
2023/12/16 10:28:22;;;;;;;;;;;1.10;99.90;;;;;;20905925;28;19951;-74
2023/12/16 10:38:25;;;;;;;;;;;1.30;99.90;;;;;;20910908;28;19917;-75
2023/12/16 10:48:29;;;;;;;;;;;1.10;99.90;;;;;;20902207;28;19913;-75
2023/12/16 10:58:35;;;;;;;;;;;1.20;99.90;;;;;;20903239;28;19935;-75
2023/12/16 11:08:36;;;;;;;;;;;1.50;99.90;;;;;;20903584;28;19912;-74
2023/12/16 11:18:39;;;;;;;;;;;1.40;99.90;;;;;;20903633;28;20061;-74
2023/12/16 11:28:39;;;;;;;;;;;1.50;99.90;;;;;;20893787;28;19990;-72
2023/12/16 11:38:44;;;;;;;;;;;1.50;99.90;;;;;;20876295;28;19952;-75
2023/12/16 11:48:44;;;;;;;;;;;1.50;99.90;;;;;;20885968;28;19919;-75
2023/12/16 11:58:45;;;;;;;;;;;1.60;99.90;;;;;;20903997;28;21223;-74
2023/12/16 12:08:46;;;;;;;;;;;1.60;99.90;;;;;;20902132;28;19920;-74
2023/12/16 12:18:47;;;;;;;;;;;1.50;99.90;;;;;;20903020;28;20384;-74
2023/12/16 12:29:02;;;;;;;;;;;1.50;99.90;;;;;;20910887;28;19913;-75
2023/12/16 12:39:06;;;;;;;;;;;1.60;99.90;;;;;;20915294;28;19958;-76
2023/12/16 12:49:07;;;;;;;;;;;1.60;99.90;;;;;;20914199;28;19920;-75
2023/12/16 12:59:07;;;;;;;;;;;1.80;99.90;;;;;;20913693;28;20357;-75
2023/12/16 13:09:08;;;;;;;;;;;2.00;99.90;;;;;;20911229;28;19938;-76
2023/12/16 13:19:09;;;;;;;;;;;1.70;99.90;;;;;;20914888;28;20334;-76
2023/12/16 13:29:09;;;;;;;;;;;1.80;99.90;;;;;;20911390;28;19974;-76
2023/12/16 13:39:10;;;;;;;;;;;1.90;99.90;;;;;;20913699;28;19971;-76
2023/12/16 13:49:12;;;;;;;;;;;1.90;99.90;;;;;;20910236;28;19919;-75
2023/12/16 13:59:13;;;;;;;;;;;2.10;99.90;;;;;;20910761;28;19954;-75
2023/12/16 14:09:14;;;;;;;;;;;2.00;99.90;;;;;;20909514;28;20297;-77
2023/12/16 14:19:15;;;;;;;;;;;1.80;99.90;;;;;;20913177;28;19991;-77
2023/12/16 14:29:15;;;;;;;;;;;1.60;99.90;;;;;;20888999;28;19913;-76
2023/12/16 14:39:16;;;;;;;;;;;1.70;99.90;;;;;;20884003;28;20427;-76
2023/12/16 14:49:16;;;;;;;;;;;1.80;99.90;;;;;;20901082;28;19946;-75
2023/12/16 14:59:17;;;;;;;;;;;1.60;99.90;;;;;;20888261;28;20316;-75
2023/12/16 15:09:18;;;;;;;;;;;1.50;99.90;;;;;;20900881;28;20324;-75
2023/12/16 15:19:18;;;;;;;;;;;1.30;99.90;;;;;;20904610;28;19916;-76
2023/12/16 15:29:19;;;;;;;;;;;1.40;99.90;;;;;;20906127;28;19924;-76
2023/12/16 15:39:20;;;;;;;;;;;1.40;99.90;;;;;;20890257;28;19948;-76
2023/12/16 15:49:23;;;;;;;;;;;1.40;99.90;;;;;;20900738;28;20004;-76
2023/12/16 15:59:24;;;;;;;;;;;1.40;99.90;;;;;;20904134;28;19917;-77
2023/12/16 16:09:24;;;;;;;;;;;1.30;99.90;;;;;;20909438;28;19913;-76
2023/12/16 16:19:25;;;;;;;;;;;1.40;99.90;;;;;;20891894;28;20276;-76
2023/12/16 16:29:25;;;;;;;;;;;1.40;99.90;;;;;;20916619;28;20595;-75
2023/12/16 16:39:27;;;;;;;;;;;1.30;99.90;;;;;;20926649;28;19920;-75
2023/12/16 16:49:28;;;;;;;;;;;1.30;99.90;;;;;;20904307;28;20035;-74
2023/12/16 16:59:28;;;;;;;;;;;1.40;99.90;;;;;;20915218;28;20421;-75
2023/12/16 17:09:29;;;;;;;;;;;1.40;99.90;;;;;;20908410;28;19924;-76
2023/12/16 17:19:30;;;;;;;;;;;1.20;99.90;;;;;;20913291;28;19908;-75
2023/12/16 17:29:30;;;;;;;;;;;1.10;99.90;;;;;;20914195;28;19920;-75
2023/12/16 17:39:31;;;;;;;;;;;1.20;99.90;;;;;;20909701;28;19919;-76
2023/12/16 17:49:32;;;;;;;;;;;1.30;99.90;;;;;;20890390;28;20316;-76
2023/12/16 17:59:34;;;;;;;;;;;1.20;99.90;;;;;;20913207;28;19912;-76
2023/12/16 18:09:34;;;;;;;;;;;1.20;99.90;;;;;;20911055;28;19912;-76
2023/12/16 18:19:35;;;;;;;;;;;1.30;99.90;;;;;;20909805;28;19908;-75
2023/12/16 18:29:38;;;;;;;;;;;1.30;99.90;;;;;;20908798;28;20254;-76
2023/12/16 18:39:39;;;;;;;;;;;1.30;99.90;;;;;;20907794;28;19948;-73
2023/12/16 18:49:42;;;;;;;;;;;1.30;99.90;;;;;;20898867;28;19966;-76
2023/12/16 18:59:42;;;;;;;;;;;1.40;99.90;;;;;;20903880;28;19915;-76
2023/12/16 19:09:44;;;;;;;;;;;1.40;99.90;;;;;;20873989;28;19913;-75
2023/12/16 19:19:44;;;;;;;;;;;1.30;99.90;;;;;;20873116;28;19916;-76
2023/12/16 19:29:45;;;;;;;;;;;1.10;99.90;;;;;;20900695;28;20421;-75
2023/12/16 19:39:46;;;;;;;;;;;1.10;99.90;;;;;;20879800;28;19919;-75
2023/12/16 19:49:47;;;;;;;;;;;1.10;99.90;;;;;;20893911;28;19913;-75
2023/12/16 19:59:48;;;;;;;;;;;1.00;99.90;;;;;;20895199;28;19923;-74
2023/12/16 20:09:49;;;;;;;;;;;0.90;99.90;;;;;;20887980;28;19913;-75
2023/12/16 20:19:50;;;;;;;;;;;1.00;99.90;;;;;;20903860;28;19909;-75
2023/12/16 20:29:51;;;;;;;;;;;1.10;99.90;;;;;;20896154;28;19913;-75
2023/12/16 20:50:11;;;;;;;;;;;1.10;99.90;;;;;;20898506;28;19970;-76
2023/12/16 21:00:12;;;;;;;;;;;1.10;99.90;;;;;;20903278;28;19951;-76
2023/12/16 21:10:12;;;;;;;;;;;1.10;99.90;;;;;;20897938;28;19952;-76
2023/12/16 21:20:13;;;;;;;;;;;1.00;99.90;;;;;;20900179;28;19939;-76
2023/12/16 21:30:14;;;;;;;;;;;0.90;99.90;;;;;;20888671;28;20288;-76
2023/12/16 21:40:15;;;;;;;;;;;1.00;99.90;;;;;;20899951;28;19913;-76
2023/12/16 21:50:16;;;;;;;;;;;1.00;99.90;;;;;;20911535;28;19920;-75
2023/12/16 22:00:16;;;;;;;;;;;1.10;99.90;;;;;;20898829;28;19908;-76
2023/12/16 22:10:17;;;;;;;;;;;1.20;99.90;;;;;;20904931;28;20417;-75
2023/12/16 22:20:18;;;;;;;;;;;1.20;99.90;;;;;;20906060;28;19919;-74
2023/12/16 22:30:19;;;;;;;;;;;1.20;99.90;;;;;;20906271;28;19923;-74
2023/12/16 22:40:19;;;;;;;;;;;1.20;99.90;;;;;;20885705;28;19924;-73
2023/12/16 22:50:20;;;;;;;;;;;1.20;99.90;;;;;;20897796;28;19958;-76
2023/12/16 23:10:21;;;;;;;;;;;1.10;99.90;;;;;;20899749;28;20389;-75
2023/12/16 23:20:22;;;;;;;;;;;1.00;99.90;;;;;;20901797;28;20386;-74
2023/12/16 23:30:23;;;;;;;;;;;1.00;99.90;;;;;;20898255;28;19994;-74
2023/12/16 23:40:24;;;;;;;;;;;1.00;99.90;;;;;;20904495;28;19919;-74
2023/12/16 23:50:25;;;;;;;;;;;1.20;99.90;;;;;;20899004;28;19952;-75
